Date,TemperatureHighF,TemperatureAvgF,TemperatureLowF,DewpointHighF,DewpointAvgF,DewpointLowF,HumidityHigh,HumidityAvg,HumidityLow,PressureMaxIn,PressureMinIn,WindSpeedMaxMPH,WindSpeedAvgMPH,GustSpeedMaxMPH,PrecipitationSumIn
2013-10-1,77,59,46,56,51,44,97,77,45,29.96,29.84,6,0,0,0.00
2013-10-2,79,65,52,62,57,50,97,79,55,29.94,29.82,12,0,12,0.00
2013-10-3,76,63,50,57,52,48,96,71,39,30.08,29.94,4,0,0,0.00
2013-10-4,63,58,51,59,54,49,95,89,76,30.08,30.03,2,0,0,0.11
2013-10-5,68,62,57,60,57,55,97,86,69,30.12,30.05,4,0,0,0.00
2013-10-6,61,57,55,58,56,54,97,95,89,30.22,30.11,5,0,0,0.36
2013-10-7,76,66,57,71,63,55,98,92,79,30.12,29.82,13,1,15,0.07
2013-10-8,65,57,47,55,46,41,83,67,43,30.37,29.90,8,0,0,0.00
2013-10-9,60,51,43,47,44,41,93,78,56,30.47,30.36,10,0,0,0.00
2013-10-10,62,52,43,54,48,42,97,88,73,30.37,30.18,6,0,0,0.00
2013-10-11,68,57,50,57,51,47,96,81,51,30.18,30.09,7,0,0,0.00
2013-10-12,60,54,48,56,52,46,96,91,84,30.39,30.14,11,0,12,0.01
2013-10-13,60,51,41,50,46,40,96,84,64,30.44,30.37,7,0,0,0.00
2013-10-14,62,49,36,49,42,34,97,80,43,30.41,30.25,3,0,0,0.00
2013-10-15,67,56,47,54,50,46,96,82,59,30.27,30.18,5,0,0,0.00
2013-10-16,57,51,47,54,49,46,97,95,90,30.18,30.07,5,0,0,0.00
2013-10-21,63,55,49,45,44,42,82,66,47,30.04,30.00,3,0,0,0.00
2013-10-22,67,54,42,53,46,39,96,77,54,30.00,29.70,6,0,0,0.00
2013-10-23,51,45,36,39,36,34,93,73,53,29.80,29.59,5,0,0,0.00
2013-10-24,52,45,38,37,32,26,83,62,39,29.89,29.64,10,0,0,0.00
2013-10-25,49,40,32,36,30,27,92,68,47,30.16,29.89,10,0,0,0.00
2013-10-26,54,42,30,38,31,28,93,68,36,30.16,29.88,10,0,0,0.00
2013-10-27,54,47,40,40,36,30,91,67,44,30.07,29.82,10,1,0,0.02
2013-10-28,57,44,32,37,32,26,91,65,43,30.36,30.06,9,1,12,0.02
2013-10-29,47,38,29,33,27,22,91,68,38,30.45,30.35,7,0,0,0.00
2013-10-30,52,40,32,44,36,29,93,87,67,30.37,30.20,7,0,0,0.03
2013-10-31,62,49,34,59,46,32,97,92,83,30.25,29.80,9,0,0,0.03